Accueil
METAR-TAF:

METAR-TAF

Aéroports :

Tak, Thaïlande

latitude: 16-53N, longitude: 099-09E, altitude: 121 m

METAR: absent

Heure: 12:57 (05:57 UTC)

Prévision

Le bulletin a été fait il y a 57 minutes, à 05:00 UTC
Prévision valable du 28 à 06 UTC au 29 à 06 UTC
Vent 5 kt de est
Visibilité 10 km ou plus
Nuages épars à une hauteur de 2500 ft
Temporairement
du 28 à 06 UTC au 28 à 12 UTC
Vent 15 kt de ouest
Visibilité: 4000 m
Quelques nuages à une hauteur de 2000 ft, Cumulonimbus.
Nuages fragmentés à une hauteur de 2500 ft
orage, pluie

TAF: VTPT 280500Z 2806/2906 08005KT 9999 SCT025 TEMPO 2806/2812 26015KT 4000 TSRA FEW020CB BKN025

Observations et prévisions météorologiques de plus de 4000 aéroports (messages METAR et TAF).

Les stations disponibles sont représentées par des disques jaunes et rouges sur la carte.

Passer la souris dessus pour voir le nom de la station.

Cliquer dessus pour voir les observations et prévisions météorologiques.

Pour changer de carte: cliquez sur les boutons verts avec une croix noire pour zoomer, sur le bouton vert avec un tiret pour effectuer un zoom arrière, ou sur les flèches vertes pour les cartes adjacentes.


METAR-TAF: